sensor_id;sensor_type;location;lat;lon;timestamp;P1;durP1;ratioP1;P2;durP2;ratioP2
6898;SDS011;3488;42.616;23.350;2023-07-29T00:02:00;2.25;;;2.15;;
6898;SDS011;3488;42.616;23.350;2023-07-29T00:04:27;2.95;;;2.80;;
6898;SDS011;3488;42.616;23.350;2023-07-29T00:06:54;2.08;;;1.98;;
6898;SDS011;3488;42.616;23.350;2023-07-29T00:09:21;2.17;;;2.08;;
6898;SDS011;3488;42.616;23.350;2023-07-29T00:11:48;4.53;;;2.50;;
6898;SDS011;3488;42.616;23.350;2023-07-29T00:14:16;2.42;;;2.30;;
6898;SDS011;3488;42.616;23.350;2023-07-29T00:16:43;2.15;;;2.05;;
6898;SDS011;3488;42.616;23.350;2023-07-29T00:19:10;2.53;;;2.42;;
6898;SDS011;3488;42.616;23.350;2023-07-29T00:21:38;2.40;;;2.28;;
6898;SDS011;3488;42.616;23.350;2023-07-29T00:24:09;2.55;;;2.30;;
6898;SDS011;3488;42.616;23.350;2023-07-29T00:26:36;2.28;;;2.17;;
6898;SDS011;3488;42.616;23.350;2023-07-29T00:29:03;2.50;;;2.30;;
6898;SDS011;3488;42.616;23.350;2023-07-29T00:31:31;2.58;;;2.42;;
6898;SDS011;3488;42.616;23.350;2023-07-29T00:33:58;2.47;;;2.35;;
6898;SDS011;3488;42.616;23.350;2023-07-29T00:36:25;3.42;;;2.45;;
6898;SDS011;3488;42.616;23.350;2023-07-29T00:38:53;2.50;;;2.40;;
6898;SDS011;3488;42.616;23.350;2023-07-29T00:41:22;2.47;;;2.33;;
6898;SDS011;3488;42.616;23.350;2023-07-29T00:43:50;2.50;;;2.30;;
6898;SDS011;3488;42.616;23.350;2023-07-29T00:46:16;3.58;;;2.47;;
6898;SDS011;3488;42.616;23.350;2023-07-29T00:48:45;3.67;;;2.40;;
6898;SDS011;3488;42.616;23.350;2023-07-29T00:51:13;2.65;;;2.45;;
6898;SDS011;3488;42.616;23.350;2023-07-29T00:53:40;2.55;;;2.45;;
6898;SDS011;3488;42.616;23.350;2023-07-29T00:56:07;2.33;;;2.22;;
6898;SDS011;3488;42.616;23.350;2023-07-29T00:58:35;2.42;;;2.33;;
6898;SDS011;3488;42.616;23.350;2023-07-29T01:01:03;2.42;;;2.22;;
6898;SDS011;3488;42.616;23.350;2023-07-29T01:03:31;3.30;;;2.53;;
6898;SDS011;3488;42.616;23.350;2023-07-29T01:06:01;3.10;;;2.90;;
6898;SDS011;3488;42.616;23.350;2023-07-29T01:08:43;2.50;;;2.40;;
6898;SDS011;3488;42.616;23.350;2023-07-29T01:11:21;4.07;;;2.40;;
6898;SDS011;3488;42.616;23.350;2023-07-29T01:14:01;2.50;;;2.40;;
6898;SDS011;3488;42.616;23.350;2023-07-29T01:16:34;2.60;;;2.50;;
6898;SDS011;3488;42.616;23.350;2023-07-29T01:19:05;3.45;;;2.88;;
6898;SDS011;3488;42.616;23.350;2023-07-29T01:21:35;3.45;;;2.70;;
6898;SDS011;3488;42.616;23.350;2023-07-29T01:24:05;2.90;;;2.70;;
6898;SDS011;3488;42.616;23.350;2023-07-29T01:26:32;3.75;;;2.85;;
6898;SDS011;3488;42.616;23.350;2023-07-29T01:28:59;2.63;;;2.53;;
6898;SDS011;3488;42.616;23.350;2023-07-29T01:31:27;3.13;;;2.85;;
6898;SDS011;3488;42.616;23.350;2023-07-29T01:34:02;3.03;;;2.83;;
6898;SDS011;3488;42.616;23.350;2023-07-29T01:36:37;2.65;;;2.50;;
6898;SDS011;3488;42.616;23.350;2023-07-29T01:39:07;2.70;;;2.50;;
6898;SDS011;3488;42.616;23.350;2023-07-29T01:41:36;3.28;;;2.83;;
6898;SDS011;3488;42.616;23.350;2023-07-29T01:44:04;4.50;;;2.45;;
6898;SDS011;3488;42.616;23.350;2023-07-29T01:46:36;3.25;;;3.03;;
6898;SDS011;3488;42.616;23.350;2023-07-29T01:49:06;2.45;;;2.35;;
6898;SDS011;3488;42.616;23.350;2023-07-29T01:51:33;2.97;;;2.78;;
6898;SDS011;3488;42.616;23.350;2023-07-29T01:54:01;3.95;;;2.53;;
6898;SDS011;3488;42.616;23.350;2023-07-29T01:56:30;2.95;;;2.75;;
6898;SDS011;3488;42.616;23.350;2023-07-29T01:58:57;3.25;;;2.80;;
6898;SDS011;3488;42.616;23.350;2023-07-29T02:01:24;3.47;;;2.42;;
6898;SDS011;3488;42.616;23.350;2023-07-29T02:03:51;2.78;;;2.58;;
6898;SDS011;3488;42.616;23.350;2023-07-29T02:06:20;2.58;;;2.47;;
6898;SDS011;3488;42.616;23.350;2023-07-29T02:08:47;2.80;;;2.60;;
6898;SDS011;3488;42.616;23.350;2023-07-29T02:11:14;3.00;;;2.80;;
6898;SDS011;3488;42.616;23.350;2023-07-29T02:13:43;2.63;;;2.53;;
6898;SDS011;3488;42.616;23.350;2023-07-29T02:16:10;3.05;;;2.80;;
6898;SDS011;3488;42.616;23.350;2023-07-29T02:18:37;3.08;;;2.88;;
6898;SDS011;3488;42.616;23.350;2023-07-29T02:21:03;2.60;;;2.50;;
6898;SDS011;3488;42.616;23.350;2023-07-29T02:23:30;3.50;;;2.42;;
6898;SDS011;3488;42.616;23.350;2023-07-29T02:25:58;2.50;;;2.40;;
6898;SDS011;3488;42.616;23.350;2023-07-29T02:28:25;3.20;;;3.00;;
6898;SDS011;3488;42.616;23.350;2023-07-29T02:33:40;2.22;;;2.13;;
6898;SDS011;3488;42.616;23.350;2023-07-29T02:36:07;5.97;;;2.90;;
6898;SDS011;3488;42.616;23.350;2023-07-29T02:38:35;3.75;;;2.90;;
6898;SDS011;3488;42.616;23.350;2023-07-29T02:41:02;2.80;;;2.70;;
6898;SDS011;3488;42.616;23.350;2023-07-29T02:43:29;2.60;;;2.50;;
6898;SDS011;3488;42.616;23.350;2023-07-29T02:45:56;2.83;;;2.63;;
6898;SDS011;3488;42.616;23.350;2023-07-29T02:48:26;2.45;;;2.35;;
6898;SDS011;3488;42.616;23.350;2023-07-29T02:50:54;3.70;;;2.58;;
6898;SDS011;3488;42.616;23.350;2023-07-29T02:53:21;2.80;;;2.60;;
6898;SDS011;3488;42.616;23.350;2023-07-29T02:55:49;2.83;;;2.70;;
6898;SDS011;3488;42.616;23.350;2023-07-29T02:58:16;2.47;;;2.38;;
6898;SDS011;3488;42.616;23.350;2023-07-29T03:00:43;2.97;;;2.88;;
6898;SDS011;3488;42.616;23.350;2023-07-29T03:03:12;2.50;;;2.40;;
6898;SDS011;3488;42.616;23.350;2023-07-29T03:05:41;2.95;;;2.72;;
6898;SDS011;3488;42.616;23.350;2023-07-29T03:08:08;2.58;;;2.40;;
6898;SDS011;3488;42.616;23.350;2023-07-29T03:10:35;2.65;;;2.55;;
6898;SDS011;3488;42.616;23.350;2023-07-29T03:13:02;2.92;;;2.55;;
6898;SDS011;3488;42.616;23.350;2023-07-29T03:15:29;2.65;;;2.47;;
6898;SDS011;3488;42.616;23.350;2023-07-29T03:17:59;3.30;;;3.10;;
6898;SDS011;3488;42.616;23.350;2023-07-29T03:20:26;2.55;;;2.45;;
6898;SDS011;3488;42.616;23.350;2023-07-29T03:22:54;3.63;;;3.38;;
6898;SDS011;3488;42.616;23.350;2023-07-29T03:25:21;3.70;;;3.40;;
6898;SDS011;3488;42.616;23.350;2023-07-29T03:27:48;4.45;;;3.47;;
6898;SDS011;3488;42.616;23.350;2023-07-29T03:30:18;3.80;;;3.50;;
6898;SDS011;3488;42.616;23.350;2023-07-29T03:32:46;5.25;;;3.70;;
6898;SDS011;3488;42.616;23.350;2023-07-29T03:35:14;3.47;;;3.20;;
6898;SDS011;3488;42.616;23.350;2023-07-29T03:37:41;3.42;;;3.22;;
6898;SDS011;3488;42.616;23.350;2023-07-29T03:40:10;4.50;;;4.10;;
6898;SDS011;3488;42.616;23.350;2023-07-29T03:42:37;4.60;;;3.22;;
6898;SDS011;3488;42.616;23.350;2023-07-29T03:45:04;6.78;;;3.63;;
6898;SDS011;3488;42.616;23.350;2023-07-29T03:47:31;3.58;;;3.08;;
6898;SDS011;3488;42.616;23.350;2023-07-29T03:49:58;3.47;;;3.13;;
6898;SDS011;3488;42.616;23.350;2023-07-29T03:52:25;6.22;;;4.00;;
6898;SDS011;3488;42.616;23.350;2023-07-29T03:54:52;3.17;;;2.97;;
6898;SDS011;3488;42.616;23.350;2023-07-29T03:57:20;2.95;;;2.85;;
6898;SDS011;3488;42.616;23.350;2023-07-29T03:59:47;3.92;;;3.08;;
6898;SDS011;3488;42.616;23.350;2023-07-29T04:02:15;3.65;;;3.45;;
6898;SDS011;3488;42.616;23.350;2023-07-29T04:04:42;6.60;;;2.85;;
6898;SDS011;3488;42.616;23.350;2023-07-29T04:07:12;3.22;;;2.95;;
6898;SDS011;3488;42.616;23.350;2023-07-29T04:09:39;3.55;;;3.30;;
6898;SDS011;3488;42.616;23.350;2023-07-29T04:12:08;3.53;;;3.33;;
6898;SDS011;3488;42.616;23.350;2023-07-29T04:14:36;3.45;;;3.25;;
6898;SDS011;3488;42.616;23.350;2023-07-29T04:17:04;6.50;;;3.67;;
6898;SDS011;3488;42.616;23.350;2023-07-29T04:19:31;3.97;;;3.60;;
6898;SDS011;3488;42.616;23.350;2023-07-29T04:21:58;5.22;;;3.58;;
6898;SDS011;3488;42.616;23.350;2023-07-29T04:24:25;5.00;;;3.75;;
6898;SDS011;3488;42.616;23.350;2023-07-29T04:26:52;4.20;;;3.55;;
6898;SDS011;3488;42.616;23.350;2023-07-29T04:29:19;3.90;;;3.60;;
6898;SDS011;3488;42.616;23.350;2023-07-29T04:31:49;3.67;;;3.47;;
6898;SDS011;3488;42.616;23.350;2023-07-29T04:34:16;4.20;;;3.78;;
6898;SDS011;3488;42.616;23.350;2023-07-29T04:36:44;4.22;;;3.85;;
6898;SDS011;3488;42.616;23.350;2023-07-29T04:39:11;4.38;;;3.97;;
6898;SDS011;3488;42.616;23.350;2023-07-29T04:41:39;3.60;;;3.40;;
6898;SDS011;3488;42.616;23.350;2023-07-29T04:44:06;5.05;;;4.22;;
6898;SDS011;3488;42.616;23.350;2023-07-29T04:46:33;4.10;;;3.80;;
6898;SDS011;3488;42.616;23.350;2023-07-29T04:49:03;5.13;;;3.65;;
6898;SDS011;3488;42.616;23.350;2023-07-29T04:51:30;4.32;;;3.92;;
6898;SDS011;3488;42.616;23.350;2023-07-29T04:53:57;4.55;;;4.22;;
6898;SDS011;3488;42.616;23.350;2023-07-29T04:56:25;6.40;;;4.47;;
6898;SDS011;3488;42.616;23.350;2023-07-29T04:58:53;5.65;;;3.90;;
6898;SDS011;3488;42.616;23.350;2023-07-29T05:01:20;5.10;;;4.57;;
6898;SDS011;3488;42.616;23.350;2023-07-29T05:03:47;4.10;;;3.70;;
6898;SDS011;3488;42.616;23.350;2023-07-29T05:06:15;4.63;;;4.22;;
6898;SDS011;3488;42.616;23.350;2023-07-29T05:08:42;5.18;;;4.25;;
6898;SDS011;3488;42.616;23.350;2023-07-29T05:11:09;6.32;;;3.83;;
6898;SDS011;3488;42.616;23.350;2023-07-29T05:13:36;5.40;;;4.13;;
6898;SDS011;3488;42.616;23.350;2023-07-29T05:16:04;4.80;;;4.22;;
6898;SDS011;3488;42.616;23.350;2023-07-29T05:18:31;5.85;;;4.20;;
6898;SDS011;3488;42.616;23.350;2023-07-29T05:20:57;4.45;;;4.05;;
6898;SDS011;3488;42.616;23.350;2023-07-29T05:23:26;5.72;;;4.63;;
6898;SDS011;3488;42.616;23.350;2023-07-29T05:25:53;4.35;;;3.95;;
6898;SDS011;3488;42.616;23.350;2023-07-29T05:28:20;4.00;;;3.80;;
6898;SDS011;3488;42.616;23.350;2023-07-29T05:30:47;5.03;;;3.80;;
6898;SDS011;3488;42.616;23.350;2023-07-29T05:33:14;5.97;;;4.82;;
6898;SDS011;3488;42.616;23.350;2023-07-29T05:35:41;13.77;;;5.15;;
6898;SDS011;3488;42.616;23.350;2023-07-29T05:38:08;14.10;;;4.70;;
6898;SDS011;3488;42.616;23.350;2023-07-29T05:40:37;6.57;;;4.13;;
6898;SDS011;3488;42.616;23.350;2023-07-29T05:43:04;10.32;;;4.60;;
6898;SDS011;3488;42.616;23.350;2023-07-29T05:45:30;6.40;;;4.28;;
6898;SDS011;3488;42.616;23.350;2023-07-29T05:47:58;7.95;;;4.15;;
6898;SDS011;3488;42.616;23.350;2023-07-29T05:50:24;4.90;;;4.25;;
6898;SDS011;3488;42.616;23.350;2023-07-29T05:52:51;5.72;;;4.32;;
6898;SDS011;3488;42.616;23.350;2023-07-29T05:55:19;4.95;;;4.45;;
6898;SDS011;3488;42.616;23.350;2023-07-29T05:57:47;6.97;;;4.22;;
6898;SDS011;3488;42.616;23.350;2023-07-29T06:00:14;10.13;;;4.40;;
6898;SDS011;3488;42.616;23.350;2023-07-29T06:02:41;4.50;;;4.20;;
6898;SDS011;3488;42.616;23.350;2023-07-29T06:05:08;6.50;;;4.05;;
6898;SDS011;3488;42.616;23.350;2023-07-29T06:07:35;6.32;;;4.22;;
6898;SDS011;3488;42.616;23.350;2023-07-29T06:10:03;9.10;;;3.63;;
6898;SDS011;3488;42.616;23.350;2023-07-29T06:12:30;7.05;;;4.60;;
6898;SDS011;3488;42.616;23.350;2023-07-29T06:14:59;8.75;;;3.85;;
6898;SDS011;3488;42.616;23.350;2023-07-29T06:17:26;5.13;;;3.28;;
6898;SDS011;3488;42.616;23.350;2023-07-29T06:19:53;4.30;;;3.80;;
6898;SDS011;3488;42.616;23.350;2023-07-29T06:22:20;3.85;;;3.50;;
6898;SDS011;3488;42.616;23.350;2023-07-29T06:24:47;4.28;;;3.88;;
6898;SDS011;3488;42.616;23.350;2023-07-29T06:27:14;3.67;;;3.30;;
6898;SDS011;3488;42.616;23.350;2023-07-29T06:29:41;10.55;;;3.30;;
6898;SDS011;3488;42.616;23.350;2023-07-29T06:32:10;5.55;;;3.00;;
6898;SDS011;3488;42.616;23.350;2023-07-29T06:34:37;4.07;;;3.70;;
6898;SDS011;3488;42.616;23.350;2023-07-29T06:37:05;2.90;;;2.80;;
6898;SDS011;3488;42.616;23.350;2023-07-29T06:39:32;7.55;;;2.95;;
6898;SDS011;3488;42.616;23.350;2023-07-29T06:41:59;3.45;;;3.25;;
6898;SDS011;3488;42.616;23.350;2023-07-29T06:44:28;5.13;;;2.97;;
6898;SDS011;3488;42.616;23.350;2023-07-29T06:46:55;3.08;;;2.92;;
6898;SDS011;3488;42.616;23.350;2023-07-29T06:49:23;4.20;;;3.05;;
6898;SDS011;3488;42.616;23.350;2023-07-29T06:51:51;2.90;;;2.70;;
6898;SDS011;3488;42.616;23.350;2023-07-29T06:54:18;3.28;;;3.08;;
6898;SDS011;3488;42.616;23.350;2023-07-29T06:56:45;4.78;;;3.15;;
6898;SDS011;3488;42.616;23.350;2023-07-29T06:59:12;3.60;;;3.30;;
6898;SDS011;3488;42.616;23.350;2023-07-29T07:01:39;3.85;;;3.60;;
6898;SDS011;3488;42.616;23.350;2023-07-29T07:04:07;2.97;;;2.78;;
6898;SDS011;3488;42.616;23.350;2023-07-29T07:06:35;3.50;;;3.15;;
6898;SDS011;3488;42.616;23.350;2023-07-29T07:09:02;3.42;;;2.67;;
6898;SDS011;3488;42.616;23.350;2023-07-29T07:11:29;3.38;;;3.08;;
6898;SDS011;3488;42.616;23.350;2023-07-29T07:13:57;3.20;;;3.00;;
6898;SDS011;3488;42.616;23.350;2023-07-29T07:16:24;3.35;;;3.13;;
6898;SDS011;3488;42.616;23.350;2023-07-29T07:18:51;6.18;;;2.70;;
6898;SDS011;3488;42.616;23.350;2023-07-29T07:21:18;3.92;;;3.63;;
6898;SDS011;3488;42.616;23.350;2023-07-29T07:23:46;3.25;;;2.95;;
6898;SDS011;3488;42.616;23.350;2023-07-29T07:26:15;3.83;;;2.95;;
6898;SDS011;3488;42.616;23.350;2023-07-29T07:28:42;3.85;;;3.45;;
6898;SDS011;3488;42.616;23.350;2023-07-29T07:31:09;3.85;;;3.20;;
6898;SDS011;3488;42.616;23.350;2023-07-29T07:33:36;3.70;;;2.90;;
6898;SDS011;3488;42.616;23.350;2023-07-29T07:36:03;5.10;;;3.05;;
6898;SDS011;3488;42.616;23.350;2023-07-29T07:38:30;3.70;;;3.20;;
6898;SDS011;3488;42.616;23.350;2023-07-29T07:40:59;3.30;;;3.10;;
6898;SDS011;3488;42.616;23.350;2023-07-29T07:43:26;3.97;;;3.70;;
6898;SDS011;3488;42.616;23.350;2023-07-29T07:45:57;4.70;;;3.05;;
6898;SDS011;3488;42.616;23.350;2023-07-29T07:48:24;6.32;;;3.05;;
6898;SDS011;3488;42.616;23.350;2023-07-29T07:50:51;6.22;;;3.70;;
6898;SDS011;3488;42.616;23.350;2023-07-29T07:53:19;4.45;;;3.10;;
6898;SDS011;3488;42.616;23.350;2023-07-29T07:55:46;3.28;;;3.05;;
6898;SDS011;3488;42.616;23.350;2023-07-29T07:58:14;5.55;;;3.60;;
6898;SDS011;3488;42.616;23.350;2023-07-29T08:00:41;4.60;;;3.42;;
6898;SDS011;3488;42.616;23.350;2023-07-29T08:03:08;7.00;;;3.40;;
6898;SDS011;3488;42.616;23.350;2023-07-29T08:05:35;4.57;;;3.13;;
6898;SDS011;3488;42.616;23.350;2023-07-29T08:08:03;5.50;;;3.42;;
6898;SDS011;3488;42.616;23.350;2023-07-29T08:10:30;5.32;;;3.08;;
6898;SDS011;3488;42.616;23.350;2023-07-29T08:12:57;3.45;;;3.25;;
6898;SDS011;3488;42.616;23.350;2023-07-29T08:15:26;5.38;;;3.28;;
6898;SDS011;3488;42.616;23.350;2023-07-29T08:17:53;5.30;;;3.17;;
6898;SDS011;3488;42.616;23.350;2023-07-29T08:20:20;4.90;;;3.38;;
6898;SDS011;3488;42.616;23.350;2023-07-29T08:22:48;4.20;;;3.13;;
6898;SDS011;3488;42.616;23.350;2023-07-29T08:25:15;5.10;;;3.45;;
6898;SDS011;3488;42.616;23.350;2023-07-29T08:27:42;3.88;;;3.15;;
6898;SDS011;3488;42.616;23.350;2023-07-29T08:30:09;3.40;;;3.20;;
6898;SDS011;3488;42.616;23.350;2023-07-29T08:32:38;4.50;;;3.40;;
6898;SDS011;3488;42.616;23.350;2023-07-29T08:35:05;4.25;;;3.50;;
6898;SDS011;3488;42.616;23.350;2023-07-29T08:37:33;5.82;;;3.35;;
6898;SDS011;3488;42.616;23.350;2023-07-29T08:40:00;3.08;;;2.88;;
6898;SDS011;3488;42.616;23.350;2023-07-29T08:42:29;3.92;;;3.60;;
6898;SDS011;3488;42.616;23.350;2023-07-29T08:44:58;3.30;;;2.97;;
6898;SDS011;3488;42.616;23.350;2023-07-29T08:47:33;3.42;;;3.17;;
6898;SDS011;3488;42.616;23.350;2023-07-29T08:50:03;3.53;;;3.22;;
6898;SDS011;3488;42.616;23.350;2023-07-29T08:52:31;3.47;;;3.17;;
6898;SDS011;3488;42.616;23.350;2023-07-29T08:55:00;3.13;;;2.95;;
6898;SDS011;3488;42.616;23.350;2023-07-29T08:57:28;5.30;;;3.10;;
6898;SDS011;3488;42.616;23.350;2023-07-29T08:59:57;5.22;;;2.90;;
6898;SDS011;3488;42.616;23.350;2023-07-29T09:02:26;3.25;;;2.95;;
6898;SDS011;3488;42.616;23.350;2023-07-29T09:04:53;7.00;;;2.92;;
6898;SDS011;3488;42.616;23.350;2023-07-29T09:07:22;3.17;;;2.72;;
6898;SDS011;3488;42.616;23.350;2023-07-29T09:09:49;2.47;;;2.38;;
6898;SDS011;3488;42.616;23.350;2023-07-29T09:12:18;3.00;;;2.65;;
6898;SDS011;3488;42.616;23.350;2023-07-29T09:14:46;2.40;;;2.22;;
6898;SDS011;3488;42.616;23.350;2023-07-29T09:17:13;2.90;;;2.70;;
6898;SDS011;3488;42.616;23.350;2023-07-29T09:19:41;4.80;;;2.45;;
6898;SDS011;3488;42.616;23.350;2023-07-29T09:22:17;4.35;;;2.70;;
6898;SDS011;3488;42.616;23.350;2023-07-29T09:24:46;2.55;;;2.00;;
6898;SDS011;3488;42.616;23.350;2023-07-29T09:27:23;2.78;;;2.10;;
6898;SDS011;3488;42.616;23.350;2023-07-29T09:29:51;3.05;;;2.08;;
6898;SDS011;3488;42.616;23.350;2023-07-29T09:32:19;2.63;;;2.42;;
6898;SDS011;3488;42.616;23.350;2023-07-29T09:34:47;2.33;;;2.22;;
6898;SDS011;3488;42.616;23.350;2023-07-29T09:37:17;1.85;;;1.75;;
6898;SDS011;3488;42.616;23.350;2023-07-29T09:39:46;2.88;;;2.03;;
6898;SDS011;3488;42.616;23.350;2023-07-29T09:42:16;1.85;;;1.75;;
6898;SDS011;3488;42.616;23.350;2023-07-29T09:44:45;2.03;;;1.90;;
6898;SDS011;3488;42.616;23.350;2023-07-29T09:47:18;2.33;;;2.22;;
6898;SDS011;3488;42.616;23.350;2023-07-29T09:49:47;2.25;;;2.00;;
6898;SDS011;3488;42.616;23.350;2023-07-29T09:52:15;1.98;;;1.88;;
6898;SDS011;3488;42.616;23.350;2023-07-29T09:54:43;2.03;;;1.92;;
6898;SDS011;3488;42.616;23.350;2023-07-29T09:57:12;2.20;;;2.10;;
6898;SDS011;3488;42.616;23.350;2023-07-29T09:59:41;3.13;;;2.10;;
6898;SDS011;3488;42.616;23.350;2023-07-29T10:02:09;1.77;;;1.67;;
6898;SDS011;3488;42.616;23.350;2023-07-29T10:04:43;3.00;;;1.90;;
6898;SDS011;3488;42.616;23.350;2023-07-29T10:07:11;2.10;;;2.00;;
6898;SDS011;3488;42.616;23.350;2023-07-29T10:09:39;1.20;;;1.20;;
6898;SDS011;3488;42.616;23.350;2023-07-29T10:12:07;2.08;;;1.60;;
6898;SDS011;3488;42.616;23.350;2023-07-29T10:14:36;2.08;;;1.58;;
6898;SDS011;3488;42.616;23.350;2023-07-29T10:17:05;1.98;;;1.88;;
6898;SDS011;3488;42.616;23.350;2023-07-29T10:19:32;1.80;;;1.70;;
6898;SDS011;3488;42.616;23.350;2023-07-29T10:22:03;1.80;;;1.70;;
6898;SDS011;3488;42.616;23.350;2023-07-29T10:24:32;1.70;;;1.60;;
6898;SDS011;3488;42.616;23.350;2023-07-29T10:27:01;2.17;;;1.65;;
6898;SDS011;3488;42.616;23.350;2023-07-29T10:29:30;1.50;;;1.50;;
6898;SDS011;3488;42.616;23.350;2023-07-29T10:32:01;4.10;;;1.63;;
6898;SDS011;3488;42.616;23.350;2023-07-29T10:34:29;2.53;;;1.45;;
6898;SDS011;3488;42.616;23.350;2023-07-29T10:36:58;2.45;;;1.83;;
6898;SDS011;3488;42.616;23.350;2023-07-29T10:39:26;1.10;;;1.10;;
6898;SDS011;3488;42.616;23.350;2023-07-29T10:41:57;1.88;;;1.77;;
6898;SDS011;3488;42.616;23.350;2023-07-29T10:47:17;1.50;;;1.40;;
6898;SDS011;3488;42.616;23.350;2023-07-29T10:49:45;2.67;;;1.58;;
6898;SDS011;3488;42.616;23.350;2023-07-29T10:52:13;1.60;;;1.60;;
6898;SDS011;3488;42.616;23.350;2023-07-29T10:54:42;1.50;;;1.40;;
6898;SDS011;3488;42.616;23.350;2023-07-29T10:57:12;5.50;;;2.15;;
6898;SDS011;3488;42.616;23.350;2023-07-29T10:59:40;2.83;;;1.73;;
6898;SDS011;3488;42.616;23.350;2023-07-29T11:02:20;1.52;;;1.50;;
6898;SDS011;3488;42.616;23.350;2023-07-29T11:04:49;3.08;;;1.73;;
6898;SDS011;3488;42.616;23.350;2023-07-29T11:07:20;4.47;;;1.98;;
6898;SDS011;3488;42.616;23.350;2023-07-29T11:09:55;3.13;;;2.15;;
6898;SDS011;3488;42.616;23.350;2023-07-29T11:12:35;1.65;;;1.55;;
6898;SDS011;3488;42.616;23.350;2023-07-29T11:15:21;1.15;;;1.15;;
6898;SDS011;3488;42.616;23.350;2023-07-29T11:17:51;1.40;;;1.30;;
6898;SDS011;3488;42.616;23.350;2023-07-29T11:20:20;3.72;;;1.60;;
6898;SDS011;3488;42.616;23.350;2023-07-29T11:22:48;2.45;;;1.90;;
6898;SDS011;3488;42.616;23.350;2023-07-29T11:25:17;4.32;;;1.90;;
6898;SDS011;3488;42.616;23.350;2023-07-29T11:27:45;1.60;;;1.60;;
6898;SDS011;3488;42.616;23.350;2023-07-29T11:30:13;2.03;;;1.17;;
6898;SDS011;3488;42.616;23.350;2023-07-29T11:32:42;1.30;;;1.27;;
6898;SDS011;3488;42.616;23.350;2023-07-29T11:35:12;1.80;;;1.20;;
6898;SDS011;3488;42.616;23.350;2023-07-29T11:37:40;2.38;;;2.03;;
6898;SDS011;3488;42.616;23.350;2023-07-29T11:40:09;2.78;;;1.65;;
6898;SDS011;3488;42.616;23.350;2023-07-29T11:42:40;2.58;;;1.35;;
6898;SDS011;3488;42.616;23.350;2023-07-29T11:45:08;1.35;;;1.30;;
6898;SDS011;3488;42.616;23.350;2023-07-29T11:47:36;1.23;;;1.23;;
6898;SDS011;3488;42.616;23.350;2023-07-29T11:50:03;1.55;;;1.50;;
6898;SDS011;3488;42.616;23.350;2023-07-29T11:52:34;2.60;;;1.77;;
6898;SDS011;3488;42.616;23.350;2023-07-29T11:55:02;1.23;;;1.23;;
6898;SDS011;3488;42.616;23.350;2023-07-29T11:57:31;2.03;;;1.30;;
6898;SDS011;3488;42.616;23.350;2023-07-29T12:00:01;3.58;;;1.85;;
6898;SDS011;3488;42.616;23.350;2023-07-29T12:02:32;2.83;;;1.25;;
6898;SDS011;3488;42.616;23.350;2023-07-29T12:05:01;2.25;;;1.45;;
6898;SDS011;3488;42.616;23.350;2023-07-29T12:07:30;1.20;;;1.20;;
6898;SDS011;3488;42.616;23.350;2023-07-29T12:10:00;4.53;;;1.75;;
6898;SDS011;3488;42.616;23.350;2023-07-29T12:12:28;1.50;;;1.40;;
6898;SDS011;3488;42.616;23.350;2023-07-29T12:14:55;1.42;;;1.42;;
6898;SDS011;3488;42.616;23.350;2023-07-29T12:17:22;1.40;;;1.30;;
6898;SDS011;3488;42.616;23.350;2023-07-29T12:19:53;1.38;;;1.38;;
6898;SDS011;3488;42.616;23.350;2023-07-29T12:22:20;1.58;;;1.48;;
6898;SDS011;3488;42.616;23.350;2023-07-29T12:24:50;1.58;;;1.48;;
6898;SDS011;3488;42.616;23.350;2023-07-29T12:27:21;1.10;;;1.10;;
6898;SDS011;3488;42.616;23.350;2023-07-29T12:29:49;1.63;;;1.52;;
6898;SDS011;3488;42.616;23.350;2023-07-29T12:32:18;1.15;;;1.15;;
6898;SDS011;3488;42.616;23.350;2023-07-29T12:34:45;1.20;;;1.20;;
6898;SDS011;3488;42.616;23.350;2023-07-29T12:37:12;1.00;;;1.00;;
6898;SDS011;3488;42.616;23.350;2023-07-29T12:39:40;2.30;;;1.33;;
6898;SDS011;3488;42.616;23.350;2023-07-29T12:42:07;1.75;;;1.10;;
6898;SDS011;3488;42.616;23.350;2023-07-29T12:44:37;1.92;;;1.83;;
6898;SDS011;3488;42.616;23.350;2023-07-29T12:47:05;1.40;;;1.40;;
6898;SDS011;3488;42.616;23.350;2023-07-29T12:49:33;1.65;;;1.65;;
6898;SDS011;3488;42.616;23.350;2023-07-29T12:52:00;2.65;;;1.70;;
6898;SDS011;3488;42.616;23.350;2023-07-29T12:54:28;1.42;;;1.33;;
6898;SDS011;3488;42.616;23.350;2023-07-29T12:56:55;2.00;;;1.90;;
6898;SDS011;3488;42.616;23.350;2023-07-29T12:59:22;1.42;;;1.42;;
6898;SDS011;3488;42.616;23.350;2023-07-29T13:01:51;2.00;;;1.80;;
6898;SDS011;3488;42.616;23.350;2023-07-29T13:04:18;1.77;;;1.58;;
6898;SDS011;3488;42.616;23.350;2023-07-29T13:06:45;1.77;;;1.58;;
6898;SDS011;3488;42.616;23.350;2023-07-29T13:09:12;1.73;;;1.63;;
6898;SDS011;3488;42.616;23.350;2023-07-29T13:11:40;3.15;;;1.58;;
6898;SDS011;3488;42.616;23.350;2023-07-29T13:14:07;1.95;;;1.85;;
6898;SDS011;3488;42.616;23.350;2023-07-29T13:16:34;1.35;;;1.30;;
6898;SDS011;3488;42.616;23.350;2023-07-29T13:19:03;1.58;;;1.50;;
6898;SDS011;3488;42.616;23.350;2023-07-29T13:21:30;1.65;;;1.55;;
6898;SDS011;3488;42.616;23.350;2023-07-29T13:23:57;1.27;;;1.27;;
6898;SDS011;3488;42.616;23.350;2023-07-29T13:26:24;1.58;;;1.58;;
6898;SDS011;3488;42.616;23.350;2023-07-29T13:28:51;1.40;;;1.40;;
6898;SDS011;3488;42.616;23.350;2023-07-29T13:31:20;1.38;;;1.38;;
6898;SDS011;3488;42.616;23.350;2023-07-29T13:33:47;1.58;;;1.48;;
6898;SDS011;3488;42.616;23.350;2023-07-29T13:36:16;1.70;;;1.60;;
6898;SDS011;3488;42.616;23.350;2023-07-29T13:38:43;2.92;;;1.50;;
6898;SDS011;3488;42.616;23.350;2023-07-29T13:41:09;1.40;;;1.30;;
6898;SDS011;3488;42.616;23.350;2023-07-29T13:43:36;1.35;;;1.35;;
6898;SDS011;3488;42.616;23.350;2023-07-29T13:46:03;1.60;;;1.50;;
6898;SDS011;3488;42.616;23.350;2023-07-29T13:48:31;1.20;;;1.10;;
6898;SDS011;3488;42.616;23.350;2023-07-29T13:50:58;3.30;;;1.80;;
6898;SDS011;3488;42.616;23.350;2023-07-29T13:53:26;1.48;;;1.42;;
6898;SDS011;3488;42.616;23.350;2023-07-29T13:55:53;1.80;;;1.70;;
6898;SDS011;3488;42.616;23.350;2023-07-29T13:58:21;1.50;;;1.50;;
6898;SDS011;3488;42.616;23.350;2023-07-29T14:00:48;1.50;;;1.50;;
6898;SDS011;3488;42.616;23.350;2023-07-29T14:03:14;1.33;;;1.33;;
6898;SDS011;3488;42.616;23.350;2023-07-29T14:05:42;1.50;;;1.50;;
6898;SDS011;3488;42.616;23.350;2023-07-29T14:08:09;1.77;;;1.70;;
6898;SDS011;3488;42.616;23.350;2023-07-29T14:10:38;2.58;;;1.95;;
6898;SDS011;3488;42.616;23.350;2023-07-29T14:13:05;2.55;;;2.35;;
6898;SDS011;3488;42.616;23.350;2023-07-29T14:15:32;1.90;;;1.80;;
6898;SDS011;3488;42.616;23.350;2023-07-29T14:17:59;1.63;;;1.42;;
6898;SDS011;3488;42.616;23.350;2023-07-29T14:20:27;2.58;;;2.20;;
6898;SDS011;3488;42.616;23.350;2023-07-29T14:22:55;2.10;;;1.92;;
6898;SDS011;3488;42.616;23.350;2023-07-29T14:25:21;1.95;;;1.85;;
6898;SDS011;3488;42.616;23.350;2023-07-29T14:27:50;1.88;;;1.75;;
6898;SDS011;3488;42.616;23.350;2023-07-29T14:30:17;1.92;;;1.83;;
6898;SDS011;3488;42.616;23.350;2023-07-29T14:32:44;2.38;;;2.25;;
6898;SDS011;3488;42.616;23.350;2023-07-29T14:35:11;2.45;;;2.25;;
6898;SDS011;3488;42.616;23.350;2023-07-29T14:37:39;3.45;;;2.00;;
6898;SDS011;3488;42.616;23.350;2023-07-29T14:40:06;1.90;;;1.80;;
6898;SDS011;3488;42.616;23.350;2023-07-29T14:42:33;2.08;;;1.98;;
6898;SDS011;3488;42.616;23.350;2023-07-29T14:45:02;1.80;;;1.70;;
6898;SDS011;3488;42.616;23.350;2023-07-29T14:47:29;1.63;;;1.63;;
6898;SDS011;3488;42.616;23.350;2023-07-29T14:49:59;1.80;;;1.70;;
6898;SDS011;3488;42.616;23.350;2023-07-29T14:52:27;2.05;;;1.95;;
6898;SDS011;3488;42.616;23.350;2023-07-29T14:54:54;1.42;;;1.40;;
6898;SDS011;3488;42.616;23.350;2023-07-29T14:57:21;3.40;;;1.88;;
6898;SDS011;3488;42.616;23.350;2023-07-29T14:59:48;1.70;;;1.60;;
6898;SDS011;3488;42.616;23.350;2023-07-29T15:02:17;1.50;;;1.50;;
6898;SDS011;3488;42.616;23.350;2023-07-29T15:04:44;1.70;;;1.60;;
6898;SDS011;3488;42.616;23.350;2023-07-29T15:07:11;1.80;;;1.70;;
6898;SDS011;3488;42.616;23.350;2023-07-29T15:09:39;1.60;;;1.50;;
6898;SDS011;3488;42.616;23.350;2023-07-29T15:12:07;1.85;;;1.52;;